Time;durP1;ratioP1;P1;durP2;ratioP2;P2;SDS_P1;SDS_P2;PMS_P1;PMS_P2;Temp;Humidity;BMP_temperature;BMP_pressure;BME280_temperature;BME280_humidity;BME280_pressure;Samples;Min_cycle;Max_cycle;Signal;HPM_P1;HPM_P2
2021/06/02 00:02:16;;;;;;;8.93;5.40;;;;;;;;;;4933701;29;20035;-77
2021/06/02 00:04:51;;;;;;;9.00;5.13;;;;;;;;;;4952032;28;20037;-77
2021/06/02 00:07:24;;;;;;;9.87;5.10;;;;;;;;;;4951363;29;20239;-76
2021/06/02 00:09:52;;;;;;;10.07;5.60;;;;;;;;;;4951790;29;20537;-76
2021/06/02 00:12:17;;;;;;;8.97;5.37;;;;;;;;;;4951796;29;20031;-76
2021/06/02 00:14:43;;;;;;;7.37;5.27;;;;;;;;;;4952427;29;20037;-78
2021/06/02 00:17:10;;;;;;;12.90;5.40;;;;;;;;;;4949709;28;20035;-78
2021/06/02 00:19:36;;;;;;;9.07;5.40;;;;;;;;;;4950281;29;20078;-77
2021/06/02 00:22:03;;;;;;;11.27;6.10;;;;;;;;;;4950921;28;20027;-77
2021/06/02 00:24:29;;;;;;;15.37;6.47;;;;;;;;;;4951378;28;20027;-78
2021/06/02 00:26:59;;;;;;;10.60;6.40;;;;;;;;;;4967644;28;20086;-77
2021/06/02 00:29:36;;;;;;;9.63;5.93;;;;;;;;;;4933926;28;20046;-78
2021/06/02 00:32:03;;;;;;;9.50;5.23;;;;;;;;;;4952222;28;20031;-77
2021/06/02 00:34:29;;;;;;;15.47;7.03;;;;;;;;;;4950986;28;20027;-78
2021/06/02 00:37:00;;;;;;;9.47;5.83;;;;;;;;;;4950649;28;20027;-78
2021/06/02 00:39:26;;;;;;;10.20;6.27;;;;;;;;;;4949906;28;20062;-78
2021/06/02 00:41:53;;;;;;;15.40;6.50;;;;;;;;;;4951317;28;20026;-77
2021/06/02 00:44:20;;;;;;;10.80;5.43;;;;;;;;;;4951605;29;20665;-77
2021/06/02 00:46:48;;;;;;;9.43;5.43;;;;;;;;;;4949893;29;20118;-77
2021/06/02 00:49:21;;;;;;;7.77;5.70;;;;;;;;;;4950498;28;20114;-79
2021/06/02 00:51:56;;;;;;;9.33;5.67;;;;;;;;;;4951236;28;20432;-77
2021/06/02 00:54:23;;;;;;;11.20;5.60;;;;;;;;;;4952044;28;20439;-78
2021/06/02 00:56:52;;;;;;;11.73;5.57;;;;;;;;;;4950804;28;20039;-77
2021/06/02 00:59:20;;;;;;;10.30;5.57;;;;;;;;;;4954324;28;20530;-78
2021/06/02 01:01:47;;;;;;;24.43;6.90;;;;;;;;;;4954537;28;20062;-78
2021/06/02 01:04:14;;;;;;;8.60;5.73;;;;;;;;;;4952929;29;20118;-77
2021/06/02 01:06:43;;;;;;;11.03;6.37;;;;;;;;;;4954876;28;20023;-77
2021/06/02 01:09:08;;;;;;;10.20;6.40;;;;;;;;;;4953203;29;20019;-78
2021/06/02 01:11:34;;;;;;;8.77;6.03;;;;;;;;;;4955304;28;20019;-77
2021/06/02 01:14:01;;;;;;;8.97;6.20;;;;;;;;;;4954246;29;20031;-78
2021/06/02 01:16:29;;;;;;;12.00;6.77;;;;;;;;;;4954351;29;20073;-78
2021/06/02 01:18:55;;;;;;;11.40;5.90;;;;;;;;;;4954231;29;20034;-78
2021/06/02 01:21:23;;;;;;;10.13;6.47;;;;;;;;;;4955285;28;20061;-78
2021/06/02 01:23:56;;;;;;;11.63;6.47;;;;;;;;;;4954840;29;20031;-78
2021/06/02 01:26:23;;;;;;;9.50;6.53;;;;;;;;;;4955448;29;20075;-76
2021/06/02 01:28:51;;;;;;;11.93;6.83;;;;;;;;;;4955103;29;20040;-77
2021/06/02 01:31:40;;;;;;;10.73;6.13;;;;;;;;;;4954039;29;20061;-78
2021/06/02 01:34:24;;;;;;;9.53;6.13;;;;;;;;;;4971025;28;20027;-76
2021/06/02 01:37:15;;;;;;;9.17;6.67;;;;;;;;;;4954148;29;20035;-76
2021/06/02 01:40:01;;;;;;;12.37;6.80;;;;;;;;;;4955517;28;20027;-77
2021/06/02 01:42:54;;;;;;;10.93;6.43;;;;;;;;;;4952586;29;20037;-75
2021/06/02 01:45:36;;;;;;;;;;;;;;;;;;4955859;28;20094;-78
2021/06/02 01:48:01;;;;;;;11.27;7.13;;;;;;;;;;4955513;28;20158;-78
2021/06/02 01:51:08;;;;;;;13.27;6.53;;;;;;;;;;4952679;29;20031;-79
2021/06/02 01:54:13;;;;;;;9.07;6.23;;;;;;;;;;4954809;28;20042;-77
2021/06/02 01:57:33;;;;;;;10.23;6.90;;;;;;;;;;4960219;28;20055;-78
2021/06/02 02:00:44;;;;;;;10.00;6.37;;;;;;;;;;4975736;28;20035;-76
2021/06/02 02:03:33;;;;;;;10.03;6.43;;;;;;;;;;4948060;28;20043;-77
2021/06/02 02:06:19;;;;;;;8.20;6.47;;;;;;;;;;4955375;28;20043;-77
2021/06/02 02:08:49;;;;;;;12.53;6.60;;;;;;;;;;4953248;28;20526;-77
2021/06/02 02:11:35;;;;;;;11.60;7.00;;;;;;;;;;4953269;28;20023;-77
2021/06/02 02:14:24;;;;;;;9.53;6.60;;;;;;;;;;4952019;28;20483;-77
2021/06/02 02:17:15;;;;;;;12.87;7.13;;;;;;;;;;4954099;28;20463;-76
2021/06/02 02:19:59;;;;;;;9.23;6.73;;;;;;;;;;4954563;28;20034;-77
2021/06/02 02:22:39;;;;;;;12.00;7.47;;;;;;;;;;4952093;28;20432;-77
2021/06/02 02:25:09;;;;;;;8.10;6.90;;;;;;;;;;4953007;28;20067;-78
2021/06/02 02:27:53;;;;;;;14.50;6.70;;;;;;;;;;4951586;29;20031;-78
2021/06/02 02:30:39;;;;;;;10.43;7.17;;;;;;;;;;4953854;28;20147;-78
2021/06/02 02:33:26;;;;;;;14.47;7.10;;;;;;;;;;4952649;29;20051;-78
2021/06/02 02:35:58;;;;;;;10.80;6.63;;;;;;;;;;4953476;28;20094;-78
2021/06/02 02:39:01;;;;;;;17.20;8.10;;;;;;;;;;4951492;28;20175;-78
2021/06/02 02:41:40;;;;;;;9.47;6.83;;;;;;;;;;4953364;28;20424;-77
2021/06/02 02:44:34;;;;;;;11.23;7.10;;;;;;;;;;4951737;29;20105;-78
2021/06/02 02:47:21;;;;;;;12.83;6.87;;;;;;;;;;4951090;28;20043;-77
2021/06/02 02:50:02;;;;;;;13.87;6.93;;;;;;;;;;4952828;28;20055;-77
2021/06/02 02:53:05;;;;;;;17.07;6.93;;;;;;;;;;4952479;29;20031;-76
2021/06/02 02:55:36;;;;;;;14.88;6.90;;;;;;;;;;4966997;28;20511;-77
2021/06/02 02:58:42;;;;;;;9.00;6.72;;;;;;;;;;4952465;29;20041;-79
2021/06/02 03:01:46;;;;;;;14.00;6.93;;;;;;;;;;4951737;28;20102;-78
2021/06/02 03:04:18;;;;;;;11.60;7.60;;;;;;;;;;4952937;28;20077;-77
2021/06/02 03:06:49;;;;;;;;;;;;;;;;;;4953314;28;20042;-78
2021/06/02 03:09:26;;;;;;;14.13;7.57;;;;;;;;;;4951959;28;20030;-77
2021/06/02 03:12:31;;;;;;;14.23;7.40;;;;;;;;;;4950797;28;20036;-78
2021/06/02 03:15:08;;;;;;;15.57;7.20;;;;;;;;;;4953192;28;20027;-76
2021/06/02 03:17:40;;;;;;;11.27;7.17;;;;;;;;;;4951308;28;20031;-78
2021/06/02 03:20:14;;;;;;;14.52;9.50;;;;;;;;;;4951341;28;20038;-77
2021/06/02 03:22:53;;;;;;;14.53;7.50;;;;;;;;;;4952417;29;20506;-77
2021/06/02 03:25:30;;;;;;;13.27;7.30;;;;;;;;;;4951024;29;20086;-78
2021/06/02 03:28:09;;;;;;;13.23;7.23;;;;;;;;;;4951319;28;20031;-76
2021/06/02 03:30:43;;;;;;;10.97;7.20;;;;;;;;;;4953263;28;20078;-78
2021/06/02 03:33:33;;;;;;;10.70;6.80;;;;;;;;;;4952235;29;20027;-78
2021/06/02 03:36:13;;;;;;;12.27;7.97;;;;;;;;;;4953249;28;20029;-77
2021/06/02 03:39:09;;;;;;;13.80;7.03;;;;;;;;;;4950420;28;20050;-77
2021/06/02 03:41:34;;;;;;;11.60;7.63;;;;;;;;;;4951506;28;20035;-78
2021/06/02 03:44:15;;;;;;;15.13;7.70;;;;;;;;;;4951874;29;20090;-79
2021/06/02 03:46:58;;;;;;;12.43;7.60;;;;;;;;;;4951812;29;20023;-77
2021/06/02 03:49:51;;;;;;;11.23;7.23;;;;;;;;;;4952032;28;20031;-77
2021/06/02 03:52:39;;;;;;;;;;;;;;;;;;4953637;28;20408;-76
2021/06/02 03:55:13;;;;;;;10.77;7.27;;;;;;;;;;4955808;28;19917;-78
2021/06/02 03:57:58;;;;;;;9.83;6.73;;;;;;;;;;4951606;28;20484;-76
2021/06/02 04:00:34;;;;;;;12.40;6.57;;;;;;;;;;4951249;29;20023;-77
2021/06/02 04:03:21;;;;;;;10.30;6.70;;;;;;;;;;4952865;29;20063;-77
2021/06/02 04:06:22;;;;;;;13.53;7.00;;;;;;;;;;4950359;29;20388;-77
2021/06/02 04:08:57;;;;;;;10.10;6.70;;;;;;;;;;4966485;28;20031;-77
2021/06/02 04:11:52;;;;;;;12.33;7.40;;;;;;;;;;4935257;29;20035;-76
2021/06/02 04:14:35;;;;;;;11.67;7.03;;;;;;;;;;4951524;28;20031;-77
2021/06/02 04:17:02;;;;;;;16.73;7.43;;;;;;;;;;4951052;29;20347;-77
2021/06/02 04:19:30;;;;;;;11.63;6.73;;;;;;;;;;4949900;28;20031;-77
2021/06/02 04:22:01;;;;;;;13.20;7.47;;;;;;;;;;4951759;28;20031;-78
2021/06/02 04:24:29;;;;;;;9.75;7.10;;;;;;;;;;4949894;29;20449;-77
2021/06/02 04:26:55;;;;;;;12.67;7.50;;;;;;;;;;4950433;28;20439;-78
2021/06/02 04:29:23;;;;;;;16.33;7.23;;;;;;;;;;4949877;28;20487;-78
2021/06/02 04:32:00;;;;;;;10.87;7.50;;;;;;;;;;4954511;28;20026;-79
2021/06/02 04:34:28;;;;;;;10.83;6.93;;;;;;;;;;4953702;29;20491;-77
2021/06/02 04:36:56;;;;;;;16.97;7.87;;;;;;;;;;4955125;28;20047;-76
2021/06/02 04:39:22;;;;;;;24.73;9.23;;;;;;;;;;4956636;28;20578;-77
2021/06/02 04:41:48;;;;;;;11.90;8.00;;;;;;;;;;4956671;28;20031;-77
2021/06/02 04:44:17;;;;;;;15.40;8.53;;;;;;;;;;4956036;28;20412;-78
2021/06/02 04:46:46;;;;;;;14.83;8.20;;;;;;;;;;4957874;28;20472;-79
2021/06/02 04:49:15;;;;;;;11.93;7.82;;;;;;;;;;4955460;28;20146;-75
2021/06/02 04:52:02;;;;;;;12.63;7.53;;;;;;;;;;4955200;28;20078;-73
2021/06/02 04:54:49;;;;;;;10.73;7.80;;;;;;;;;;4953822;28;20101;-74
2021/06/02 04:57:36;;;;;;;12.03;7.50;;;;;;;;;;4953778;28;20035;-76
2021/06/02 05:00:38;;;;;;;20.87;10.07;;;;;;;;;;4953492;28;20051;-74
2021/06/02 05:03:25;;;;;;;17.43;8.67;;;;;;;;;;4953132;28;20027;-75
2021/06/02 05:06:15;;;;;;;9.87;6.87;;;;;;;;;;4953217;28;20027;-74
2021/06/02 05:08:50;;;;;;;15.97;8.30;;;;;;;;;;4954797;28;20035;-75
2021/06/02 05:11:46;;;;;;;15.90;8.67;;;;;;;;;;4955199;29;20027;-74
2021/06/02 05:14:17;;;;;;;14.80;10.10;;;;;;;;;;4955014;28;20055;-75
2021/06/02 05:17:07;;;;;;;13.65;9.55;;;;;;;;;;4953035;28;20038;-76
2021/06/02 05:20:16;;;;;;;12.57;8.23;;;;;;;;;;4954449;28;20456;-75
2021/06/02 05:23:19;;;;;;;10.47;7.20;;;;;;;;;;4954022;29;20024;-73
2021/06/02 05:26:05;;;;;;;15.43;8.20;;;;;;;;;;4953186;29;20038;-74
2021/06/02 05:29:09;;;;;;;13.93;7.93;;;;;;;;;;4953553;28;20436;-74
2021/06/02 05:31:41;;;;;;;20.77;7.90;;;;;;;;;;4953409;29;20038;-74
2021/06/02 05:34:28;;;;;;;12.90;7.07;;;;;;;;;;4952983;28;20487;-74
2021/06/02 05:37:17;;;;;;;13.10;7.03;;;;;;;;;;4954705;28;20023;-74
2021/06/02 05:40:12;;;;;;;17.87;7.77;;;;;;;;;;4952887;29;20031;-75
2021/06/02 05:43:02;;;;;;;11.27;7.20;;;;;;;;;;4952883;28;20475;-76
2021/06/02 05:45:49;;;;;;;12.33;6.00;;;;;;;;;;4952963;29;20071;-75
2021/06/02 05:48:34;;;;;;;16.37;8.47;;;;;;;;;;4954334;28;20058;-73
2021/06/02 05:51:39;;;;;;;16.43;6.90;;;;;;;;;;4952654;28;20496;-74
2021/06/02 05:54:43;;;;;;;7.87;6.13;;;;;;;;;;4953240;28;20031;-76
2021/06/02 05:57:26;;;;;;;16.97;6.30;;;;;;;;;;4953036;29;20123;-74
2021/06/02 05:59:57;;;;;;;10.73;6.63;;;;;;;;;;4954178;28;20166;-76
2021/06/02 06:03:03;;;;;;;12.90;7.70;;;;;;;;;;4952256;28;20034;-75
2021/06/02 06:05:53;;;;;;;10.00;6.77;;;;;;;;;;4952520;28;20073;-75
2021/06/02 06:08:44;;;;;;;14.27;6.53;;;;;;;;;;4952451;28;20035;-74
2021/06/02 06:11:36;;;;;;;12.90;7.73;;;;;;;;;;4953379;28;20455;-75
2021/06/02 06:14:27;;;;;;;11.05;7.45;;;;;;;;;;4984993;28;20042;-76
2021/06/02 06:17:08;;;;;;;13.57;7.60;;;;;;;;;;4964449;28;20034;-74
2021/06/02 06:20:12;;;;;;;17.57;7.57;;;;;;;;;;4973094;28;20109;-74
2021/06/02 06:23:05;;;;;;;13.27;7.43;;;;;;;;;;4971379;28;20487;-73
2021/06/02 06:25:43;;;;;;;16.38;7.85;;;;;;;;;;4989996;28;20038;-74
2021/06/02 06:28:19;;;;;;;22.53;8.50;;;;;;;;;;4991815;28;20046;-74
2021/06/02 06:30:51;;;;;;;12.43;6.80;;;;;;;;;;4993677;28;20014;-75
2021/06/02 06:33:17;;;;;;;;;;;;;;;;;;4992290;28;20048;-76
2021/06/02 06:35:45;;;;;;;17.33;8.55;;;;;;;;;;4991022;28;19914;-74
2021/06/02 06:38:21;;;;;;;8.45;5.90;;;;;;;;;;4992896;28;20058;-74
2021/06/02 06:40:51;;;;;;;14.05;6.60;;;;;;;;;;4991052;28;20018;-74
2021/06/02 06:43:20;;;;;;;11.57;6.07;;;;;;;;;;4989982;28;20267;-76
2021/06/02 06:45:53;;;;;;;14.43;7.28;;;;;;;;;;4990069;28;20022;-75
2021/06/02 06:48:22;;;;;;;7.72;5.75;;;;;;;;;;4975023;28;20344;-74
2021/06/02 06:51:14;;;;;;;10.57;5.82;;;;;;;;;;4991715;28;20066;-72
2021/06/02 06:53:41;;;;;;;20.00;8.90;;;;;;;;;;4988372;28;20126;-72
2021/06/02 06:56:09;;;;;;;15.57;6.05;;;;;;;;;;4972934;28;20019;-76
2021/06/02 06:58:35;;;;;;;14.60;5.57;;;;;;;;;;4967920;28;20046;-75
2021/06/02 07:01:02;;;;;;;10.95;6.18;;;;;;;;;;4988355;28;20018;-75
2021/06/02 07:03:27;;;;;;;14.32;5.90;;;;;;;;;;4982110;28;20053;-74
2021/06/02 07:05:54;;;;;;;12.48;5.95;;;;;;;;;;4984619;28;20042;-75
2021/06/02 07:08:20;;;;;;;10.90;4.95;;;;;;;;;;4987471;28;20122;-74
2021/06/02 07:10:46;;;;;;;12.40;5.70;;;;;;;;;;4986624;28;20037;-74
2021/06/02 07:13:14;;;;;;;12.57;5.95;;;;;;;;;;4986123;28;20030;-75
2021/06/02 07:15:41;;;;;;;13.05;5.70;;;;;;;;;;4980972;28;20609;-75
2021/06/02 07:18:07;;;;;;;8.38;4.68;;;;;;;;;;4984434;28;20463;-75
2021/06/02 07:20:35;;;;;;;12.93;5.10;;;;;;;;;;4985916;28;20038;-74
2021/06/02 07:23:01;;;;;;;8.77;4.50;;;;;;;;;;4985223;28;20041;-73
2021/06/02 07:25:30;;;;;;;17.50;5.32;;;;;;;;;;4962416;28;20042;-75
2021/06/02 07:28:00;;;;;;;11.65;4.78;;;;;;;;;;4966184;28;20446;-75
2021/06/02 07:30:27;;;;;;;14.63;5.28;;;;;;;;;;4984162;28;20045;-76
2021/06/02 07:32:54;;;;;;;13.60;4.43;;;;;;;;;;4985414;28;20028;-76
2021/06/02 07:35:19;;;;;;;8.52;4.32;;;;;;;;;;4962366;28;20517;-75
2021/06/02 07:37:46;;;;;;;11.60;5.65;;;;;;;;;;4983405;28;20048;-75
2021/06/02 07:40:13;;;;;;;7.95;4.30;;;;;;;;;;4984669;28;20120;-76
2021/06/02 07:42:40;;;;;;;7.47;3.85;;;;;;;;;;4987517;28;20062;-74
2021/06/02 07:45:06;;;;;;;11.77;4.25;;;;;;;;;;4998535;28;20498;-74
2021/06/02 07:47:32;;;;;;;8.25;4.93;;;;;;;;;;4964982;28;20042;-76
2021/06/02 07:49:57;;;;;;;8.68;4.32;;;;;;;;;;4984840;28;20482;-76
2021/06/02 07:52:26;;;;;;;11.15;4.28;;;;;;;;;;4984350;28;20026;-75
2021/06/02 07:54:52;;;;;;;6.05;3.70;;;;;;;;;;4984836;28;20129;-75
2021/06/02 07:57:22;;;;;;;9.85;3.97;;;;;;;;;;4987433;28;20156;-76
2021/06/02 07:59:48;;;;;;;7.88;4.60;;;;;;;;;;4983422;28;20038;-74
2021/06/02 08:02:13;;;;;;;6.38;3.75;;;;;;;;;;4983616;28;20490;-74
2021/06/02 08:04:39;;;;;;;34.33;7.97;;;;;;;;;;4979783;28;20076;-76
2021/06/02 08:07:07;;;;;;;8.82;3.40;;;;;;;;;;4983012;28;20030;-76
2021/06/02 08:09:35;;;;;;;5.95;3.03;;;;;;;;;;4981136;28;20729;-77
2021/06/02 08:12:05;;;;;;;10.65;4.10;;;;;;;;;;4962637;28;20185;-80
2021/06/02 08:14:31;;;;;;;7.13;3.42;;;;;;;;;;4968432;28;20041;-76
2021/06/02 08:16:58;;;;;;;8.57;3.10;;;;;;;;;;4982627;28;20034;-75
2021/06/02 08:19:24;;;;;;;9.35;4.00;;;;;;;;;;4988258;28;20145;-75
2021/06/02 08:21:50;;;;;;;7.22;3.28;;;;;;;;;;4980997;28;20071;-74
2021/06/02 08:24:16;;;;;;;10.95;3.70;;;;;;;;;;4983419;28;20066;-76
2021/06/02 08:26:45;;;;;;;4.22;3.15;;;;;;;;;;4980353;28;20058;-73
2021/06/02 08:29:11;;;;;;;27.45;14.80;;;;;;;;;;4982034;28;20027;-76
2021/06/02 08:31:37;;;;;;;7.05;3.60;;;;;;;;;;4987676;28;20022;-75
2021/06/02 08:34:03;;;;;;;8.48;4.47;;;;;;;;;;4981312;28;20031;-76
2021/06/02 08:36:32;;;;;;;3.03;2.72;;;;;;;;;;4991263;28;20023;-75
2021/06/02 08:38:58;;;;;;;7.10;3.20;;;;;;;;;;4974823;28;20030;-74
2021/06/02 08:41:24;;;;;;;7.32;3.30;;;;;;;;;;4975353;28;20442;-76
2021/06/02 08:43:51;;;;;;;4.70;2.95;;;;;;;;;;4982868;28;20113;-76
2021/06/02 08:46:19;;;;;;;8.98;4.70;;;;;;;;;;4978416;28;20030;-75
2021/06/02 08:48:49;;;;;;;10.50;3.10;;;;;;;;;;4971833;28;20459;-75
2021/06/02 08:51:18;;;;;;;8.70;3.85;;;;;;;;;;4995146;28;20477;-74
2021/06/02 08:53:47;;;;;;;4.85;2.67;;;;;;;;;;4983725;28;20038;-75
2021/06/02 08:56:14;;;;;;;10.57;3.85;;;;;;;;;;4976008;28;20157;-75
2021/06/02 08:58:42;;;;;;;8.25;3.22;;;;;;;;;;4976773;28;20034;-73
2021/06/02 09:01:09;;;;;;;8.30;3.42;;;;;;;;;;4979450;28;20038;-76
2021/06/02 09:03:35;;;;;;;5.20;2.88;;;;;;;;;;4993813;28;20102;-75
2021/06/02 09:06:07;;;;;;;3.58;3.03;;;;;;;;;;4977237;28;20114;-76
2021/06/02 09:08:34;;;;;;;6.82;3.90;;;;;;;;;;4979730;28;20694;-76
2021/06/02 09:11:18;;;;;;;7.95;3.38;;;;;;;;;;4983201;28;20044;-76
2021/06/02 09:13:45;;;;;;;10.07;3.83;;;;;;;;;;4979701;28;20237;-75
2021/06/02 09:16:28;;;;;;;6.60;3.50;;;;;;;;;;4977058;28;20490;-74
2021/06/02 09:19:03;;;;;;;7.75;3.00;;;;;;;;;;4984021;28;20037;-76
2021/06/02 09:21:37;;;;;;;5.10;2.78;;;;;;;;;;4985365;28;20092;-74
2021/06/02 09:24:04;;;;;;;6.55;3.60;;;;;;;;;;4969502;28;20033;-76
2021/06/02 09:26:32;;;;;;;5.97;2.97;;;;;;;;;;4987121;28;20069;-75
2021/06/02 09:29:11;;;;;;;5.22;2.83;;;;;;;;;;4979921;28;20030;-74
2021/06/02 09:31:41;;;;;;;3.78;3.15;;;;;;;;;;4985575;28;20027;-75
2021/06/02 09:34:06;;;;;;;9.52;4.25;;;;;;;;;;4982621;28;20687;-75
2021/06/02 09:36:34;;;;;;;10.27;4.20;;;;;;;;;;4981479;28;20093;-76
2021/06/02 09:39:04;;;;;;;5.18;2.80;;;;;;;;;;4984246;28;20042;-76
2021/06/02 09:41:37;;;;;;;9.07;3.72;;;;;;;;;;4986782;28;20755;-74
2021/06/02 09:44:19;;;;;;;7.85;3.13;;;;;;;;;;4988293;28;20124;-76
2021/06/02 09:47:05;;;;;;;10.05;4.35;;;;;;;;;;4982365;28;20038;-76
2021/06/02 09:49:44;;;;;;;8.38;3.90;;;;;;;;;;4987338;28;20056;-75
2021/06/02 09:52:10;;;;;;;5.57;3.20;;;;;;;;;;4986751;28;20058;-75
2021/06/02 09:54:35;;;;;;;7.97;4.18;;;;;;;;;;4988873;28;20061;-75
2021/06/02 09:57:10;;;;;;;9.98;4.72;;;;;;;;;;4985232;28;20037;-76
2021/06/02 09:59:55;;;;;;;15.95;7.20;;;;;;;;;;4988934;28;20046;-75
2021/06/02 10:02:23;;;;;;;5.85;3.60;;;;;;;;;;4970784;28;20340;-76
2021/06/02 10:05:01;;;;;;;10.27;3.75;;;;;;;;;;4985757;28;20046;-75
2021/06/02 10:07:27;;;;;;;6.30;4.15;;;;;;;;;;4985299;28;20038;-76
2021/06/02 10:10:06;;;;;;;7.88;4.13;;;;;;;;;;4988924;28;20033;-76
2021/06/02 10:12:32;;;;;;;9.18;4.13;;;;;;;;;;4988716;28;20033;-77
2021/06/02 10:14:59;;;;;;;5.90;3.35;;;;;;;;;;4986187;28;20034;-75
2021/06/02 10:17:33;;;;;;;5.15;3.72;;;;;;;;;;4977803;28;20030;-76
2021/06/02 10:20:14;;;;;;;18.67;4.18;;;;;;;;;;4987344;28;20038;-74
2021/06/02 10:22:41;;;;;;;7.13;3.53;;;;;;;;;;4985685;28;20453;-76
2021/06/02 10:25:09;;;;;;;5.93;3.42;;;;;;;;;;4988136;28;20542;-74
2021/06/02 10:27:36;;;;;;;6.45;3.65;;;;;;;;;;4982582;28;20022;-76
2021/06/02 10:30:05;;;;;;;5.88;3.47;;;;;;;;;;4987425;28;20065;-77
2021/06/02 10:32:31;;;;;;;9.48;4.22;;;;;;;;;;4985074;28;20026;-75
2021/06/02 10:34:56;;;;;;;8.52;3.25;;;;;;;;;;4984558;28;20030;-76
2021/06/02 10:37:23;;;;;;;10.32;3.08;;;;;;;;;;4982206;28;20055;-76
2021/06/02 10:40:03;;;;;;;8.90;4.50;;;;;;;;;;4985391;28;20030;-76
2021/06/02 10:42:50;;;;;;;4.47;3.38;;;;;;;;;;4984691;28;20061;-76
2021/06/02 10:45:23;;;;;;;8.45;3.58;;;;;;;;;;4986681;28;20053;-75
2021/06/02 10:47:58;;;;;;;8.35;3.55;;;;;;;;;;4980554;28;20066;-76
2021/06/02 10:50:47;;;;;;;10.75;3.25;;;;;;;;;;4973945;28;20048;-77
2021/06/02 10:53:23;;;;;;;6.50;3.50;;;;;;;;;;4984521;28;20041;-74
2021/06/02 10:55:55;;;;;;;7.95;3.83;;;;;;;;;;4982949;28;20061;-76
2021/06/02 10:58:33;;;;;;;7.28;3.35;;;;;;;;;;4984433;28;20096;-75
2021/06/02 11:01:09;;;;;;;4.88;3.10;;;;;;;;;;4996780;28;20062;-75
2021/06/02 11:03:38;;;;;;;11.35;4.32;;;;;;;;;;4980312;28;20426;-74
2021/06/02 11:06:06;;;;;;;5.97;3.42;;;;;;;;;;4981913;28;20399;-74
2021/06/02 11:08:50;;;;;;;9.60;4.40;;;;;;;;;;4980750;28;20069;-76
2021/06/02 11:11:29;;;;;;;8.02;3.80;;;;;;;;;;4985306;28;20038;-75
2021/06/02 11:14:16;;;;;;;5.30;3.47;;;;;;;;;;4978286;28;20150;-75
2021/06/02 11:16:47;;;;;;;14.65;3.83;;;;;;;;;;4979736;28;20034;-76
2021/06/02 11:19:14;;;;;;;5.15;3.58;;;;;;;;;;4982072;28;20096;-74
2021/06/02 11:22:06;;;;;;;33.38;5.25;;;;;;;;;;4987308;28;20026;-76
2021/06/02 11:24:36;;;;;;;8.00;3.92;;;;;;;;;;4983646;28;20053;-77
2021/06/02 11:27:14;;;;;;;9.35;4.32;;;;;;;;;;4986455;28;20036;-76
2021/06/02 11:29:48;;;;;;;17.60;3.40;;;;;;;;;;4983396;28;21395;-78
2021/06/02 11:32:21;;;;;;;10.68;3.72;;;;;;;;;;4991221;28;20026;-76
2021/06/02 11:34:54;;;;;;;7.63;3.65;;;;;;;;;;4982964;28;20031;-79
2021/06/02 11:37:26;;;;;;;7.10;3.28;;;;;;;;;;4981344;28;20034;-76
2021/06/02 11:40:05;;;;;;;12.85;6.78;;;;;;;;;;4982361;28;20034;-77
2021/06/02 11:42:37;;;;;;;14.70;4.43;;;;;;;;;;4981177;28;20089;-76
2021/06/02 11:45:08;;;;;;;6.25;2.95;;;;;;;;;;4982921;28;20042;-75
2021/06/02 11:47:36;;;;;;;9.80;3.50;;;;;;;;;;4983622;28;20347;-77
2021/06/02 11:50:07;;;;;;;6.78;3.95;;;;;;;;;;4983218;28;20034;-77
2021/06/02 11:52:34;;;;;;;6.22;3.15;;;;;;;;;;4978397;28;20060;-76
2021/06/02 11:55:12;;;;;;;7.28;4.88;;;;;;;;;;4982102;28;20037;-77
2021/06/02 11:57:43;;;;;;;34.00;5.47;;;;;;;;;;4978683;28;20041;-78
2021/06/02 12:00:12;;;;;;;8.55;3.05;;;;;;;;;;4984588;28;20022;-80
2021/06/02 12:02:39;;;;;;;4.82;2.75;;;;;;;;;;4980671;28;20026;-79
2021/06/02 12:05:22;;;;;;;5.60;2.60;;;;;;;;;;4986764;28;20149;-78
2021/06/02 12:07:55;;;;;;;3.80;2.60;;;;;;;;;;4986112;28;20125;-78
2021/06/02 12:10:22;;;;;;;6.05;3.00;;;;;;;;;;4990701;28;20076;-79
2021/06/02 12:12:49;;;;;;;14.68;3.40;;;;;;;;;;4970316;28;20029;-77
2021/06/02 12:15:17;;;;;;;4.97;2.90;;;;;;;;;;4970538;28;20045;-79
2021/06/02 12:17:44;;;;;;;8.10;2.80;;;;;;;;;;4980453;28;20065;-78
2021/06/02 12:20:20;;;;;;;5.70;2.67;;;;;;;;;;4982586;28;20030;-79
2021/06/02 12:22:47;;;;;;;7.35;3.92;;;;;;;;;;4978080;28;20142;-79
2021/06/02 12:25:22;;;;;;;16.90;4.40;;;;;;;;;;4971834;28;20038;-80
2021/06/02 12:27:54;;;;;;;36.00;5.32;;;;;;;;;;4973024;28;20042;-77
2021/06/02 12:30:22;;;;;;;13.13;3.60;;;;;;;;;;4976773;28;20116;-77
2021/06/02 12:33:01;;;;;;;9.75;4.40;;;;;;;;;;4976653;28;20041;-78
2021/06/02 12:35:28;;;;;;;12.32;5.00;;;;;;;;;;4989003;28;20037;-76
2021/06/02 12:38:09;;;;;;;24.27;4.80;;;;;;;;;;4975606;28;20088;-76
2021/06/02 12:40:38;;;;;;;6.75;3.78;;;;;;;;;;4978497;28;20124;-81
2021/06/02 12:43:16;;;;;;;5.15;2.90;;;;;;;;;;4976945;28;20475;-79
2021/06/02 12:45:43;;;;;;;10.02;3.55;;;;;;;;;;4982691;28;20073;-79
2021/06/02 12:48:11;;;;;;;6.10;3.30;;;;;;;;;;4979614;28;20026;-79
2021/06/02 12:50:47;;;;;;;4.50;3.33;;;;;;;;;;4978604;28;20121;-80
2021/06/02 12:53:18;;;;;;;11.15;3.42;;;;;;;;;;4969344;28;20061;-80
2021/06/02 12:55:48;;;;;;;9.30;3.13;;;;;;;;;;4988582;28;20042;-79
2021/06/02 12:58:19;;;;;;;6.35;3.30;;;;;;;;;;4978756;28;20490;-79
2021/06/02 13:00:49;;;;;;;7.05;3.45;;;;;;;;;;4992430;28;20038;-78
2021/06/02 13:03:16;;;;;;;;;;;;;;;;;;4971774;28;20301;-79
2021/06/02 13:05:44;;;;;;;16.45;8.88;;;;;;;;;;4979023;28;20383;-83
2021/06/02 13:08:10;;;;;;;27.83;9.45;;;;;;;;;;4978448;28;20038;-80
2021/06/02 13:10:39;;;;;;;7.07;4.05;;;;;;;;;;4997445;28;20898;-79
2021/06/02 13:13:07;;;;;;;15.68;3.97;;;;;;;;;;4977591;28;20033;-80
2021/06/02 13:15:35;;;;;;;8.25;3.47;;;;;;;;;;4970960;28;20030;-80
2021/06/02 13:18:03;;;;;;;5.80;3.80;;;;;;;;;;4976200;28;20049;-77
2021/06/02 13:20:41;;;;;;;13.60;3.28;;;;;;;;;;4980729;28;20586;-76
2021/06/02 13:23:23;;;;;;;11.18;4.20;;;;;;;;;;4980062;28;20061;-78
2021/06/02 13:26:00;;;;;;;8.57;3.45;;;;;;;;;;4984145;28;20045;-75
2021/06/02 13:28:27;;;;;;;5.53;2.85;;;;;;;;;;4982047;28;20022;-81
2021/06/02 13:30:58;;;;;;;5.18;2.33;;;;;;;;;;4986990;28;20045;-78
2021/06/02 13:33:35;;;;;;;6.40;2.47;;;;;;;;;;4985883;28;20034;-79
2021/06/02 13:36:03;;;;;;;6.13;3.13;;;;;;;;;;4983195;28;20069;-80
2021/06/02 13:38:29;;;;;;;5.57;2.30;;;;;;;;;;4999553;28;20105;-80
2021/06/02 13:40:56;;;;;;;5.07;2.53;;;;;;;;;;4985304;28;20112;-78
2021/06/02 13:43:22;;;;;;;10.63;2.92;;;;;;;;;;4983078;28;20569;-80
2021/06/02 13:46:09;;;;;;;3.20;2.45;;;;;;;;;;4980784;28;20118;-79
2021/06/02 13:48:39;;;;;;;4.43;2.78;;;;;;;;;;4980175;28;20038;-82
2021/06/02 13:51:32;;;;;;;4.80;2.88;;;;;;;;;;4990435;28;20052;-80
2021/06/02 13:54:13;;;;;;;4.78;2.70;;;;;;;;;;4976990;28;20080;-77
2021/06/02 13:56:56;;;;;;;4.00;2.72;;;;;;;;;;5009231;28;20592;-80
2021/06/02 13:59:25;;;;;;;5.45;2.72;;;;;;;;;;5003681;28;20161;-78
2021/06/02 14:01:52;;;;;;;7.53;2.20;;;;;;;;;;4998715;28;20022;-80
2021/06/02 14:04:21;;;;;;;8.70;2.72;;;;;;;;;;4971176;28;20027;-76
2021/06/02 14:06:49;;;;;;;4.78;2.40;;;;;;;;;;4991751;28;20058;-78
2021/06/02 14:09:18;;;;;;;5.45;2.45;;;;;;;;;;4977342;28;20025;-79
2021/06/02 14:11:44;;;;;;;10.77;3.90;;;;;;;;;;4989078;28;20586;-78
2021/06/02 14:14:10;;;;;;;2.53;2.30;;;;;;;;;;4976735;28;20075;-79
2021/06/02 14:16:35;;;;;;;4.88;2.80;;;;;;;;;;5005315;28;20367;-81
2021/06/02 14:19:02;;;;;;;2.67;2.13;;;;;;;;;;4997596;28;20045;-77
2021/06/02 14:21:29;;;;;;;6.00;2.50;;;;;;;;;;4991895;28;20053;-80
2021/06/02 14:23:56;;;;;;;3.58;2.28;;;;;;;;;;4982022;28;20030;-82
2021/06/02 14:26:23;;;;;;;3.20;2.25;;;;;;;;;;5012845;28;20074;-81
2021/06/02 14:28:49;;;;;;;7.20;2.50;;;;;;;;;;4982380;28;20034;-80
2021/06/02 14:31:14;;;;;;;3.25;2.58;;;;;;;;;;4977131;28;20077;-79
2021/06/02 14:33:41;;;;;;;4.05;2.45;;;;;;;;;;4989048;28;20450;-78
2021/06/02 14:36:06;;;;;;;3.72;3.05;;;;;;;;;;5005925;28;20122;-78
2021/06/02 14:38:33;;;;;;;2.63;2.42;;;;;;;;;;4976037;28;20126;-78
2021/06/02 14:41:00;;;;;;;7.15;3.00;;;;;;;;;;4982793;28;20048;-77
2021/06/02 14:43:26;;;;;;;6.35;2.13;;;;;;;;;;4988017;28;20085;-78
2021/06/02 14:45:52;;;;;;;10.20;3.13;;;;;;;;;;5001652;28;20521;-78
2021/06/02 14:48:17;;;;;;;7.20;3.03;;;;;;;;;;5004308;28;20022;-79
2021/06/02 14:50:43;;;;;;;4.82;2.58;;;;;;;;;;5006769;28;20108;-78
2021/06/02 14:53:08;;;;;;;4.82;2.63;;;;;;;;;;4988559;28;20026;-79
2021/06/02 14:55:34;;;;;;;5.63;2.67;;;;;;;;;;4992234;28;20550;-79
2021/06/02 14:58:00;;;;;;;12.10;4.40;;;;;;;;;;5004310;28;20042;-79
2021/06/02 15:00:29;;;;;;;6.95;3.28;;;;;;;;;;4993596;28;20030;-81
2021/06/02 15:02:57;;;;;;;9.93;3.30;;;;;;;;;;5004413;28;20062;-79
2021/06/02 15:05:24;;;;;;;5.72;2.92;;;;;;;;;;4993192;28;20030;-79
2021/06/02 15:07:49;;;;;;;6.38;4.07;;;;;;;;;;4996813;28;20050;-81
2021/06/02 15:10:15;;;;;;;5.85;2.58;;;;;;;;;;4988844;28;20057;-82
2021/06/02 15:12:43;;;;;;;6.57;3.47;;;;;;;;;;4990905;28;20068;-79
2021/06/02 15:15:09;;;;;;;12.52;3.17;;;;;;;;;;4984815;28;20017;-81
2021/06/02 15:17:36;;;;;;;5.28;3.35;;;;;;;;;;5008594;28;20652;-78
2021/06/02 15:20:04;;;;;;;4.72;3.08;;;;;;;;;;5009642;28;20034;-80
2021/06/02 15:22:30;;;;;;;5.97;3.08;;;;;;;;;;5010149;28;20112;-78